Time;durP1;ratioP1;P1;durP2;ratioP2;P2;SDS_P1;SDS_P2;PMS_P1;PMS_P2;Temp;Humidity;BMP_temperature;BMP_pressure;BME280_temperature;BME280_humidity;BME280_pressure;Samples;Min_cycle;Max_cycle;Signal;HPM_P1;HPM_P2
2023/12/20 00:01:49;;;;;;;;;;;;;;;0.46;70.18;101158.59;106477;1268;107706;-67
2023/12/20 00:04:17;;;;;;;;;;;;;;;0.42;70.30;101159.80;106470;1268;97934;-64
2023/12/20 00:06:46;;;;;;;;;;;;;;;0.38;70.46;101159.24;106477;1268;97862;-66
2023/12/20 00:09:14;;;;;;;;;;;;;;;0.36;70.34;101154.55;106520;1272;112128;-64
2023/12/20 00:11:42;;;;;;;;;;;;;;;0.33;70.63;101148.17;106526;1271;107791;-63
2023/12/20 00:14:10;;;;;;;;;;;;;;;0.30;70.46;101142.82;106452;1269;107272;-64
2023/12/20 00:16:38;;;;;;;;;;;;;;;0.25;70.67;101141.94;106439;1272;98181;-66
2023/12/20 00:19:07;;;;;;;;;;;;;;;0.24;70.43;101137.58;106493;1273;97868;-67
2023/12/20 00:21:36;;;;;;;;;;;;;;;0.22;70.47;101134.50;106478;1268;111530;-67
2023/12/20 00:24:04;;;;;;;;;;;;;;;0.21;70.64;101129.06;106509;1268;109560;-65
2023/12/20 00:26:32;;;;;;;;;;;;;;;0.20;70.80;101123.79;106401;1273;107345;-65
2023/12/20 00:29:00;;;;;;;;;;;;;;;0.19;70.82;101122.06;106456;1268;97746;-65
2023/12/20 00:31:29;;;;;;;;;;;;;;;0.19;70.86;101125.42;106466;1268;97907;-67
2023/12/20 00:33:57;;;;;;;;;;;;;;;0.19;70.87;101121.70;106436;1268;112912;-67
2023/12/20 00:36:25;;;;;;;;;;;;;;;0.19;70.70;101117.84;106446;1268;107480;-65
2023/12/20 00:38:53;;;;;;;;;;;;;;;0.17;70.64;101115.29;106477;1268;108271;-65
2023/12/20 00:41:21;;;;;;;;;;;;;;;0.14;70.78;101112.89;106452;1273;97934;-67
2023/12/20 00:43:49;;;;;;;;;;;;;;;0.14;71.01;101112.56;106470;1268;97743;-64
2023/12/20 00:46:17;;;;;;;;;;;;;;;0.14;70.98;101112.38;106490;1268;110790;-65
2023/12/20 00:48:45;;;;;;;;;;;;;;;0.17;71.47;101108.38;106440;1268;108147;-64
2023/12/20 00:51:14;;;;;;;;;;;;;;;0.22;71.73;101107.31;106349;1269;107454;-63
2023/12/20 00:53:43;;;;;;;;;;;;;;;0.27;71.90;101105.00;106402;1268;97962;-64
2023/12/20 00:56:11;;;;;;;;;;;;;;;0.30;72.00;101100.44;106461;1268;97843;-64
2023/12/20 00:58:39;;;;;;;;;;;;;;;0.33;72.24;101104.23;106498;1268;112099;-64
2023/12/20 01:01:07;;;;;;;;;;;;;;;0.37;72.48;101095.60;106475;1268;107466;-65
2023/12/20 01:03:36;;;;;;;;;;;;;;;0.43;72.62;101092.70;106461;1268;108683;-66
2023/12/20 01:06:05;;;;;;;;;;;;;;;0.51;72.76;101087.30;106511;1268;97862;-66
2023/12/20 01:08:35;;;;;;;;;;;;;;;0.55;72.60;101090.11;106477;1271;97981;-65
2023/12/20 01:11:05;;;;;;;;;;;;;;;0.55;72.24;101082.69;106501;1268;111332;-65
2023/12/20 01:13:34;;;;;;;;;;;;;;;0.56;72.44;101076.83;106455;1273;107159;-65
2023/12/20 01:16:02;;;;;;;;;;;;;;;0.58;72.55;101074.60;106470;1272;108216;-68
2023/12/20 01:18:30;;;;;;;;;;;;;;;0.61;72.77;101065.99;106445;1268;98679;-65
2023/12/20 01:21:03;;;;;;;;;;;;;;;0.65;72.67;101069.41;106527;1269;97821;-64
2023/12/20 01:23:32;;;;;;;;;;;;;;;0.66;72.64;101067.05;106532;1268;111106;-65
2023/12/20 01:26:00;;;;;;;;;;;;;;;0.68;72.57;101062.39;106507;1268;108407;-65
2023/12/20 01:28:28;;;;;;;;;;;;;;;0.71;72.71;101061.36;106472;1268;108644;-65
2023/12/20 01:30:57;;;;;;;;;;;;;;;0.74;72.81;101050.81;106491;1268;97854;-65
2023/12/20 01:33:25;;;;;;;;;;;;;;;0.75;72.84;101044.94;106493;1269;97972;-64
2023/12/20 01:35:53;;;;;;;;;;;;;;;0.78;72.72;101038.30;106474;1268;111173;-67
2023/12/20 01:38:22;;;;;;;;;;;;;;;0.79;72.68;101034.01;106464;1268;107339;-65
2023/12/20 01:40:50;;;;;;;;;;;;;;;0.81;72.52;101023.18;106494;1268;108329;-65
2023/12/20 01:43:18;;;;;;;;;;;;;;;0.83;72.54;101020.77;106412;1268;97962;-65
2023/12/20 01:45:47;;;;;;;;;;;;;;;0.88;72.73;101018.98;106486;1268;97844;-64
2023/12/20 01:48:16;;;;;;;;;;;;;;;0.88;72.60;101027.23;106464;1269;111397;-66
2023/12/20 01:50:45;;;;;;;;;;;;;;;0.93;72.87;101029.88;106554;1269;107226;-64
2023/12/20 01:53:14;;;;;;;;;;;;;;;0.92;72.53;101027.23;106502;1272;107905;-66
2023/12/20 01:55:42;;;;;;;;;;;;;;;0.93;72.60;101027.39;106474;1269;97869;-64
2023/12/20 01:58:12;;;;;;;;;;;;;;;0.99;73.21;101022.36;106500;1272;97833;-65
2023/12/20 02:00:40;;;;;;;;;;;;;;;1.06;73.07;101019.23;106449;1268;110787;-65
2023/12/20 02:03:09;;;;;;;;;;;;;;;1.06;72.54;101017.30;106446;1268;108319;-65
2023/12/20 02:05:37;;;;;;;;;;;;;;;1.02;72.48;101013.39;106493;1268;108618;-64
2023/12/20 02:08:06;;;;;;;;;;;;;;;1.01;72.71;101009.02;106488;1268;98028;-68
2023/12/20 02:10:35;;;;;;;;;;;;;;;0.97;72.03;101005.52;106517;1268;98457;-66
2023/12/20 02:13:04;;;;;;;;;;;;;;;0.89;71.98;100997.39;106448;1272;111777;-67
2023/12/20 02:15:32;;;;;;;;;;;;;;;0.80;72.09;100999.16;106534;1269;108432;-65
2023/12/20 02:18:00;;;;;;;;;;;;;;;0.71;71.95;100995.85;106494;1269;107621;-65
2023/12/20 02:20:29;;;;;;;;;;;;;;;0.67;72.31;100988.62;106484;1268;97856;-65
2023/12/20 02:22:57;;;;;;;;;;;;;;;0.61;72.38;100979.52;106496;1269;97863;-64
2023/12/20 02:25:25;;;;;;;;;;;;;;;0.55;72.44;100986.14;106533;1272;113039;-64
2023/12/20 02:27:53;;;;;;;;;;;;;;;0.50;72.53;100988.32;106454;1268;108026;-65
2023/12/20 02:30:21;;;;;;;;;;;;;;;0.44;72.49;100984.30;106513;1268;108496;-64
2023/12/20 02:32:50;;;;;;;;;;;;;;;0.39;72.80;100972.70;106504;1273;97897;-65
2023/12/20 02:35:18;;;;;;;;;;;;;;;0.36;72.88;100963.13;106492;1268;98004;-65
2023/12/20 02:37:46;;;;;;;;;;;;;;;0.33;72.90;100960.61;106518;1273;111269;-64
2023/12/20 02:40:15;;;;;;;;;;;;;;;0.28;73.08;100959.73;106531;1268;108427;-67
2023/12/20 02:42:43;;;;;;;;;;;;;;;0.25;73.07;100961.49;106494;1268;107768;-66
2023/12/20 02:45:12;;;;;;;;;;;;;;;0.21;73.04;100954.95;106439;1269;97854;-66
2023/12/20 02:47:40;;;;;;;;;;;;;;;0.17;73.07;100954.59;106450;1273;98000;-64
2023/12/20 02:50:08;;;;;;;;;;;;;;;0.10;73.03;100948.85;106490;1273;112059;-64
2023/12/20 02:52:37;;;;;;;;;;;;;;;0.05;73.17;100949.23;106501;1268;108010;-65
2023/12/20 02:55:05;;;;;;;;;;;;;;;0.05;73.47;100940.11;106441;1268;107652;-63
2023/12/20 02:57:36;;;;;;;;;;;;;;;0.04;73.60;100945.42;106510;1272;97837;-66
2023/12/20 03:00:05;;;;;;;;;;;;;;;0.04;73.47;100942.59;106535;1268;97868;-65
2023/12/20 03:02:33;;;;;;;;;;;;;;;0.04;73.48;100939.25;106518;1268;111640;-63
2023/12/20 03:05:02;;;;;;;;;;;;;;;0.03;73.42;100942.31;106471;1269;107778;-66
2023/12/20 03:07:30;;;;;;;;;;;;;;;0.04;73.70;100946.33;106461;1268;107909;-66
2023/12/20 03:09:58;;;;;;;;;;;;;;;0.05;73.92;100946.27;106496;1268;97945;-64
2023/12/20 03:12:46;;;;;;;;;;;;;;;0.06;74.22;100940.05;106489;1273;97788;-68
2023/12/20 03:15:14;;;;;;;;;;;;;;;0.07;74.37;100938.08;106490;1268;111412;-66
2023/12/20 03:17:43;;;;;;;;;;;;;;;0.09;74.59;100940.46;106508;1268;108415;-64
2023/12/20 03:20:13;;;;;;;;;;;;;;;0.10;74.63;100938.83;106571;1272;107904;-65
2023/12/20 03:22:41;;;;;;;;;;;;;;;0.10;74.82;100934.92;106504;1268;97854;-64
2023/12/20 03:25:10;;;;;;;;;;;;;;;0.10;74.50;100937.41;106526;1268;97857;-66
2023/12/20 03:27:41;;;;;;;;;;;;;;;0.09;74.47;100934.79;106517;1268;111899;-65
2023/12/20 03:30:09;;;;;;;;;;;;;;;0.08;74.44;100932.76;106463;1268;107458;-64
2023/12/20 03:32:38;;;;;;;;;;;;;;;0.06;74.52;100926.46;106519;1268;107666;-64
2023/12/20 03:35:07;;;;;;;;;;;;;;;0.05;74.72;100928.80;106502;1268;98032;-64
2023/12/20 03:37:35;;;;;;;;;;;;;;;0.03;74.48;100926.79;106536;1268;97947;-65
2023/12/20 03:40:03;;;;;;;;;;;;;;;0.00;74.82;100924.95;106500;1269;110842;-65
2023/12/20 03:42:31;;;;;;;;;;;;;;;-0.03;74.89;100922.10;106500;1273;108662;-65
2023/12/20 03:44:59;;;;;;;;;;;;;;;-0.08;74.95;100917.71;106441;1274;107957;-66
2023/12/20 03:47:28;;;;;;;;;;;;;;;-0.12;75.24;100920.73;106510;1272;97857;-66
2023/12/20 03:49:56;;;;;;;;;;;;;;;-0.16;75.39;100917.34;106534;1270;97849;-65
2023/12/20 03:52:25;;;;;;;;;;;;;;;-0.19;75.37;100911.09;106524;1269;111078;-65
2023/12/20 03:54:53;;;;;;;;;;;;;;;-0.19;75.29;100907.77;106499;1272;107468;-65
2023/12/20 03:57:22;;;;;;;;;;;;;;;-0.19;75.48;100909.33;106452;1268;108425;-66
2023/12/20 03:59:50;;;;;;;;;;;;;;;-0.17;75.67;100915.61;106432;1268;97861;-64
2023/12/20 04:02:18;;;;;;;;;;;;;;;-0.16;75.82;100906.58;106524;1272;97925;-65
2023/12/20 04:04:46;;;;;;;;;;;;;;;-0.14;76.08;100902.09;106474;1268;110853;-63
2023/12/20 04:07:14;;;;;;;;;;;;;;;-0.14;76.08;100895.39;106359;1268;108660;-65
2023/12/20 04:09:43;;;;;;;;;;;;;;;-0.14;75.91;100899.81;106482;1268;107729;-68
2023/12/20 04:12:11;;;;;;;;;;;;;;;-0.11;76.10;100903.36;106465;1274;97973;-65
2023/12/20 04:14:40;;;;;;;;;;;;;;;-0.08;76.18;100901.33;106451;1268;97897;-65
2023/12/20 04:17:08;;;;;;;;;;;;;;;-0.05;76.31;100904.89;106469;1270;112142;-67
2023/12/20 04:19:36;;;;;;;;;;;;;;;-0.05;76.08;100904.70;106505;1268;108173;-67
2023/12/20 04:22:04;;;;;;;;;;;;;;;-0.04;76.00;100900.96;106499;1269;107108;-66
2023/12/20 04:24:33;;;;;;;;;;;;;;;-0.03;76.08;100894.24;106503;1268;97878;-65
2023/12/20 04:27:01;;;;;;;;;;;;;;;-0.03;75.99;100888.76;106459;1270;97941;-65
2023/12/20 04:29:29;;;;;;;;;;;;;;;0.01;76.05;100885.42;106487;1270;110821;-66
2023/12/20 04:31:58;;;;;;;;;;;;;;;0.05;75.86;100886.34;106510;1272;108743;-64
2023/12/20 04:34:26;;;;;;;;;;;;;;;0.09;76.15;100885.61;106393;1273;107380;-64
2023/12/20 04:36:54;;;;;;;;;;;;;;;0.14;76.18;100884.50;106457;1268;97937;-65
2023/12/20 04:39:23;;;;;;;;;;;;;;;0.18;75.99;100881.54;106507;1268;97830;-66
2023/12/20 04:41:51;;;;;;;;;;;;;;;0.22;76.02;100881.89;106483;1272;111913;-66
2023/12/20 04:44:19;;;;;;;;;;;;;;;0.25;75.88;100873.98;106501;1274;108143;-65
2023/12/20 04:46:47;;;;;;;;;;;;;;;0.29;75.92;100882.81;106481;1273;108349;-65
2023/12/20 04:49:15;;;;;;;;;;;;;;;0.32;75.68;100879.85;106472;1273;97894;-66
2023/12/20 04:51:44;;;;;;;;;;;;;;;0.34;75.45;100880.14;106476;1273;97974;-67
2023/12/20 04:54:13;;;;;;;;;;;;;;;0.35;75.60;100877.79;106470;1272;111069;-67
2023/12/20 04:56:41;;;;;;;;;;;;;;;0.30;75.03;100879.25;106465;1273;108989;-66
2023/12/20 04:59:09;;;;;;;;;;;;;;;0.20;74.94;100877.73;106445;1271;107501;-65
2023/12/20 05:01:37;;;;;;;;;;;;;;;0.14;74.99;100873.06;106495;1272;97838;-66
2023/12/20 05:04:06;;;;;;;;;;;;;;;0.08;74.90;100870.83;106463;1270;97776;-66
2023/12/20 05:06:34;;;;;;;;;;;;;;;0.08;75.19;100869.43;106507;1273;111887;-64
2023/12/20 05:09:03;;;;;;;;;;;;;;;0.13;75.57;100869.21;106519;1272;107499;-65
2023/12/20 05:11:31;;;;;;;;;;;;;;;0.20;75.82;100873.34;106484;1270;108101;-67
2023/12/20 05:13:59;;;;;;;;;;;;;;;0.24;75.79;100868.21;106390;1272;97861;-65
2023/12/20 05:16:28;;;;;;;;;;;;;;;0.26;75.92;100861.42;106486;1270;97970;-64
2023/12/20 05:18:56;;;;;;;;;;;;;;;0.28;75.71;100856.75;106440;1272;111449;-66
2023/12/20 05:21:24;;;;;;;;;;;;;;;0.27;75.52;100853.96;106499;1273;110136;-65
2023/12/20 05:23:52;;;;;;;;;;;;;;;0.25;75.51;100852.27;106442;1270;108086;-68
2023/12/20 05:26:21;;;;;;;;;;;;;;;0.20;75.12;100846.88;106467;1272;97853;-65
2023/12/20 05:28:49;;;;;;;;;;;;;;;0.13;74.76;100848.05;106469;1271;97964;-65
2023/12/20 05:31:17;;;;;;;;;;;;;;;0.06;74.50;100851.00;106481;1269;110310;-65
2023/12/20 05:33:45;;;;;;;;;;;;;;;-0.02;74.52;100853.97;106504;1269;107506;-65
2023/12/20 05:36:15;;;;;;;;;;;;;;;-0.09;74.44;100848.64;106446;1270;107738;-64
2023/12/20 05:38:43;;;;;;;;;;;;;;;-0.15;74.57;100847.29;106477;1270;98253;-65
2023/12/20 05:41:11;;;;;;;;;;;;;;;-0.21;74.19;100843.87;106436;1270;97858;-65
2023/12/20 05:43:39;;;;;;;;;;;;;;;-0.27;74.18;100844.30;106465;1273;111892;-64
2023/12/20 05:46:09;;;;;;;;;;;;;;;-0.35;74.33;100846.20;106551;1272;107974;-65
2023/12/20 05:48:38;;;;;;;;;;;;;;;-0.41;74.19;100849.64;106452;1270;107776;-63
2023/12/20 05:51:06;;;;;;;;;;;;;;;-0.46;74.19;100852.46;106436;1270;97827;-65
2023/12/20 05:53:34;;;;;;;;;;;;;;;-0.51;74.37;100854.43;106561;1272;97880;-66
2023/12/20 05:56:03;;;;;;;;;;;;;;;-0.55;74.59;100853.91;106496;1272;111704;-66
2023/12/20 05:58:32;;;;;;;;;;;;;;;-0.58;74.90;100850.16;106498;1272;108319;-67
2023/12/20 06:01:03;;;;;;;;;;;;;;;-0.61;74.70;100850.44;106463;1270;108027;-65
2023/12/20 06:03:31;;;;;;;;;;;;;;;-0.61;74.81;100854.14;106459;1270;97882;-66
2023/12/20 06:06:04;;;;;;;;;;;;;;;-0.61;74.84;100850.63;106509;1270;97901;-65
2023/12/20 06:08:43;;;;;;;;;;;;;;;-0.61;75.07;100856.06;106501;1273;111970;-65
2023/12/20 06:11:13;;;;;;;;;;;;;;;-0.60;75.18;100853.23;106468;1270;108480;-65
2023/12/20 06:13:41;;;;;;;;;;;;;;;-0.59;74.94;100850.91;106456;1271;108824;-64
2023/12/20 06:16:10;;;;;;;;;;;;;;;-0.60;75.07;100854.11;106378;1270;97961;-64
2023/12/20 06:18:38;;;;;;;;;;;;;;;-0.60;75.32;100853.58;106537;1273;97843;-64
2023/12/20 06:21:07;;;;;;;;;;;;;;;-0.58;75.28;100849.63;106470;1270;111852;-65
2023/12/20 06:23:36;;;;;;;;;;;;;;;-0.56;75.64;100850.24;106486;1270;108271;-64
2023/12/20 06:26:04;;;;;;;;;;;;;;;-0.55;75.97;100852.48;106469;1270;108277;-63
2023/12/20 06:28:32;;;;;;;;;;;;;;;-0.54;75.93;100850.48;106467;1270;97978;-66
2023/12/20 06:31:01;;;;;;;;;;;;;;;-0.47;76.23;100855.86;106474;1270;97958;-66
2023/12/20 06:33:31;;;;;;;;;;;;;;;-0.42;76.09;100851.77;106405;1273;112126;-64
2023/12/20 06:35:59;;;;;;;;;;;;;;;-0.38;75.95;100850.53;106378;1273;107736;-64
2023/12/20 06:38:27;;;;;;;;;;;;;;;-0.34;76.10;100849.33;106418;1273;107399;-65
2023/12/20 06:40:57;;;;;;;;;;;;;;;-0.30;76.15;100846.20;106436;1270;97869;-65
2023/12/20 06:43:25;;;;;;;;;;;;;;;-0.26;76.07;100844.22;106501;1272;97783;-65
2023/12/20 06:46:13;;;;;;;;;;;;;;;-0.21;76.06;100848.60;106459;1270;112352;-66
2023/12/20 06:48:42;;;;;;;;;;;;;;;-0.15;76.30;100840.63;106460;1270;108211;-66
2023/12/20 06:51:16;;;;;;;;;;;;;;;-0.09;76.28;100835.42;106382;1272;109012;-66
2023/12/20 06:53:45;;;;;;;;;;;;;;;-0.03;76.34;100835.86;106435;1269;97895;-66
2023/12/20 06:56:13;;;;;;;;;;;;;;;0.02;76.17;100832.66;106472;1272;97915;-65
2023/12/20 06:58:45;;;;;;;;;;;;;;;0.07;76.30;100835.29;106485;1272;111427;-66
2023/12/20 07:01:14;;;;;;;;;;;;;;;0.10;76.30;100834.06;106459;1268;107985;-68
2023/12/20 07:03:43;;;;;;;;;;;;;;;0.15;76.55;100835.61;106470;1273;108667;-67
2023/12/20 07:06:11;;;;;;;;;;;;;;;0.20;76.51;100828.33;106452;1271;97973;-65
2023/12/20 07:08:40;;;;;;;;;;;;;;;0.26;76.65;100827.89;106488;1269;97882;-66
2023/12/20 07:11:08;;;;;;;;;;;;;;;0.31;76.71;100823.06;106387;1273;110842;-65
2023/12/20 07:13:36;;;;;;;;;;;;;;;0.37;76.79;100816.49;106464;1270;108704;-65
2023/12/20 07:16:05;;;;;;;;;;;;;;;0.41;77.04;100821.40;106485;1270;108312;-65
2023/12/20 07:18:34;;;;;;;;;;;;;;;0.47;76.97;100826.97;106462;1273;97859;-65
2023/12/20 07:21:02;;;;;;;;;;;;;;;0.55;77.02;100819.90;106476;1269;98027;-65
2023/12/20 07:23:31;;;;;;;;;;;;;;;0.62;77.28;100822.38;106456;1271;111902;-64
2023/12/20 07:25:59;;;;;;;;;;;;;;;0.70;77.77;100819.54;106455;1269;109082;-65
2023/12/20 07:28:27;;;;;;;;;;;;;;;0.79;78.40;100817.92;106464;1271;108153;-65
2023/12/20 07:30:55;;;;;;;;;;;;;;;0.88;78.48;100815.19;106381;1270;97907;-64
2023/12/20 07:33:24;;;;;;;;;;;;;;;0.99;78.39;100814.15;106392;1270;97843;-64
2023/12/20 07:35:52;;;;;;;;;;;;;;;1.12;78.64;100813.17;106471;1268;111421;-64
2023/12/20 07:38:20;;;;;;;;;;;;;;;1.25;78.78;100811.50;106497;1268;108695;-64
2023/12/20 07:40:48;;;;;;;;;;;;;;;1.35;78.68;100813.84;106489;1270;108522;-65
2023/12/20 07:43:16;;;;;;;;;;;;;;;1.46;78.90;100818.95;106404;1269;98300;-65
2023/12/20 07:45:44;;;;;;;;;;;;;;;1.56;78.85;100817.20;106469;1272;97851;-64
2023/12/20 07:48:12;;;;;;;;;;;;;;;1.69;78.91;100813.02;106386;1269;111893;-65
2023/12/20 07:50:41;;;;;;;;;;;;;;;1.83;79.00;100814.95;106494;1273;107664;-64
2023/12/20 07:53:09;;;;;;;;;;;;;;;1.95;78.75;100824.44;106455;1268;106738;-65
2023/12/20 07:55:38;;;;;;;;;;;;;;;2.08;78.70;100827.83;106379;1270;97885;-64
2023/12/20 07:58:07;;;;;;;;;;;;;;;2.21;78.59;100823.27;106492;1270;97794;-65
2023/12/20 08:00:35;;;;;;;;;;;;;;;2.30;78.44;100816.94;106425;1270;112281;-65
2023/12/20 08:03:04;;;;;;;;;;;;;;;2.44;78.41;100816.73;106459;1269;109147;-67
2023/12/20 08:05:32;;;;;;;;;;;;;;;2.61;78.75;100812.98;106473;1269;107690;-69
2023/12/20 08:08:00;;;;;;;;;;;;;;;2.78;78.65;100809.74;106476;1268;97865;-68
2023/12/20 08:10:29;;;;;;;;;;;;;;;2.97;78.24;100807.26;106486;1268;97730;-65
2023/12/20 08:12:58;;;;;;;;;;;;;;;3.34;77.68;100802.54;106501;1268;111963;-64
2023/12/20 08:15:26;;;;;;;;;;;;;;;3.88;76.48;100797.25;106432;1270;108614;-64
2023/12/20 08:17:54;;;;;;;;;;;;;;;4.38;74.85;100793.15;106429;1268;108542;-65
2023/12/20 08:20:23;;;;;;;;;;;;;;;4.86;73.98;100782.30;106509;1268;97900;-64
2023/12/20 08:23:06;;;;;;;;;;;;;;;5.32;73.05;100780.79;106495;1269;97942;-64
2023/12/20 08:25:35;;;;;;;;;;;;;;;5.74;72.62;100779.42;106468;1269;112465;-65
2023/12/20 08:28:04;;;;;;;;;;;;;;;6.13;71.76;100774.45;106463;1268;108663;-65
2023/12/20 08:30:32;;;;;;;;;;;;;;;6.50;70.92;100771.46;106484;1273;107081;-65
2023/12/20 08:33:01;;;;;;;;;;;;;;;6.93;70.13;100764.51;106515;1268;97872;-64
2023/12/20 08:35:29;;;;;;;;;;;;;;;7.24;68.55;100761.34;106477;1272;97824;-65
2023/12/20 08:37:58;;;;;;;;;;;;;;;7.59;68.65;100759.73;106503;1268;111639;-66
2023/12/20 08:40:26;;;;;;;;;;;;;;;8.04;68.23;100751.55;106478;1270;108269;-65
2023/12/20 08:42:55;;;;;;;;;;;;;;;8.51;67.88;100754.44;106294;1270;107430;-66
2023/12/20 08:45:23;;;;;;;;;;;;;;;8.81;66.42;100747.21;106391;1268;97881;-64
2023/12/20 08:47:51;;;;;;;;;;;;;;;9.20;66.06;100739.73;106426;1270;97961;-65
2023/12/20 08:50:20;;;;;;;;;;;;;;;9.58;64.62;100736.17;106352;1275;112159;-65
2023/12/20 08:52:48;;;;;;;;;;;;;;;9.91;62.72;100728.92;106452;1268;108632;-64
2023/12/20 08:55:18;;;;;;;;;;;;;;;10.10;61.17;100729.77;106457;1273;107934;-65
2023/12/20 08:57:46;;;;;;;;;;;;;;;10.38;59.70;100724.99;106452;1269;97739;-64
2023/12/20 09:00:15;;;;;;;;;;;;;;;10.66;59.98;100717.70;106450;1272;97983;-65
2023/12/20 09:02:43;;;;;;;;;;;;;;;10.98;59.80;100706.04;106489;1268;110776;-63
2023/12/20 09:05:12;;;;;;;;;;;;;;;11.37;58.75;100701.25;106496;1270;108004;-65
2023/12/20 09:07:40;;;;;;;;;;;;;;;11.64;57.80;100697.47;106456;1268;107720;-66
2023/12/20 09:10:08;;;;;;;;;;;;;;;11.84;56.71;100689.14;106442;1270;97865;-66
2023/12/20 09:12:39;;;;;;;;;;;;;;;11.88;54.41;100686.59;106505;1270;98576;-65
2023/12/20 09:15:08;;;;;;;;;;;;;;;11.99;55.20;100680.02;106359;1268;110251;-65
2023/12/20 09:17:35;;;;;;;;;;;;;;;12.43;55.10;100677.23;106375;1275;107966;-65
2023/12/20 09:20:07;;;;;;;;;;;;;;;12.71;54.68;100675.70;106428;1268;108709;-65
2023/12/20 09:22:38;;;;;;;;;;;;;;;13.27;53.71;100666.59;106482;1270;97906;-65
2023/12/20 09:25:06;;;;;;;;;;;;;;;13.49;50.59;100669.58;106472;1268;97836;-65
2023/12/20 09:27:34;;;;;;;;;;;;;;;13.61;49.70;100662.44;106451;1268;112345;-65
2023/12/20 09:30:05;;;;;;;;;;;;;;;13.70;48.98;100661.83;106466;1268;109385;-65
2023/12/20 09:32:33;;;;;;;;;;;;;;;13.80;49.29;100659.59;106463;1268;107679;-66
2023/12/20 09:35:02;;;;;;;;;;;;;;;13.87;49.28;100663.29;106433;1268;97883;-65
2023/12/20 09:37:30;;;;;;;;;;;;;;;14.25;48.96;100670.16;106402;1268;97974;-67
2023/12/20 09:39:59;;;;;;;;;;;;;;;14.42;48.42;100670.13;106459;1268;111346;-66
2023/12/20 09:42:38;;;;;;;;;;;;;;;14.66;48.61;100659.57;106492;1268;108792;-66
2023/12/20 09:45:08;;;;;;;;;;;;;;;15.10;48.03;100652.56;106489;1272;106956;-66
2023/12/20 09:47:36;;;;;;;;;;;;;;;15.32;47.02;100644.77;106439;1270;97957;-64
2023/12/20 09:50:06;;;;;;;;;;;;;;;15.45;45.89;100637.78;106451;1268;97727;-65
2023/12/20 09:52:36;;;;;;;;;;;;;;;15.65;45.75;100626.02;106489;1268;110769;-64
2023/12/20 09:55:05;;;;;;;;;;;;;;;16.00;44.74;100618.08;106454;1268;109123;-64
2023/12/20 09:57:34;;;;;;;;;;;;;;;16.16;42.51;100611.05;106453;1268;108144;-64
2023/12/20 10:00:03;;;;;;;;;;;;;;;16.02;43.60;100612.43;106425;1268;97891;-65
2023/12/20 10:02:42;;;;;;;;;;;;;;;16.21;42.74;100606.75;106452;1268;98542;-64
2023/12/20 10:05:15;;;;;;;;;;;;;;;16.23;41.89;100597.34;106470;1272;112211;-64
2023/12/20 10:07:43;;;;;;;;;;;;;;;16.09;41.85;100592.23;106388;1270;110076;-63
2023/12/20 10:10:13;;;;;;;;;;;;;;;16.08;40.61;100583.72;106409;1268;108131;-65
2023/12/20 10:13:00;;;;;;;;;;;;;;;16.19;41.12;100571.98;106414;1268;97862;-68
2023/12/20 10:15:28;;;;;;;;;;;;;;;16.46;41.52;100568.88;105721;1268;957793;-68
2023/12/20 10:17:57;;;;;;;;;;;;;;;16.85;41.10;100560.65;106511;1268;111921;-67
2023/12/20 10:20:31;;;;;;;;;;;;;;;17.06;39.82;100553.08;106475;1268;110261;-66
2023/12/20 10:23:01;;;;;;;;;;;;;;;17.23;39.89;100551.38;106464;1268;107115;-66
2023/12/20 10:25:31;;;;;;;;;;;;;;;17.60;39.40;100548.80;106420;1273;97978;-66
2023/12/20 10:28:13;;;;;;;;;;;;;;;17.73;38.55;100541.38;106447;1268;97914;-67
2023/12/20 10:30:42;;;;;;;;;;;;;;;17.83;38.10;100531.98;106529;1270;111678;-66
2023/12/20 10:33:11;;;;;;;;;;;;;;;17.77;39.19;100528.07;106458;1268;107764;-66
2023/12/20 10:35:40;;;;;;;;;;;;;;;18.25;39.14;100522.88;106431;1268;108301;-64
2023/12/20 10:38:14;;;;;;;;;;;;;;;18.73;38.09;100515.77;106418;1268;97971;-63
2023/12/20 10:40:44;;;;;;;;;;;;;;;18.70;37.33;100506.80;106438;1270;97884;-65
2023/12/20 10:43:13;;;;;;;;;;;;;;;18.92;37.52;100499.77;106369;1268;111868;-65
2023/12/20 10:45:43;;;;;;;;;;;;;;;18.91;35.82;100500.23;106310;1268;107577;-66
2023/12/20 10:48:12;;;;;;;;;;;;;;;19.18;36.75;100489.45;106441;1268;107830;-66
2023/12/20 10:50:41;;;;;;;;;;;;;;;19.38;35.00;100482.94;106457;1268;97887;-67
2023/12/20 10:53:10;;;;;;;;;;;;;;;19.62;35.75;100479.02;106500;1268;97935;-66
2023/12/20 10:55:38;;;;;;;;;;;;;;;19.98;35.59;100473.95;106494;1268;111731;-64
2023/12/20 10:58:09;;;;;;;;;;;;;;;20.12;33.86;100466.48;106474;1268;107421;-65
2023/12/20 11:00:40;;;;;;;;;;;;;;;20.10;34.00;100464.59;106483;1268;108268;-65
2023/12/20 11:03:10;;;;;;;;;;;;;;;20.01;34.02;100456.97;106432;1270;97873;-64
2023/12/20 11:05:50;;;;;;;;;;;;;;;19.95;34.00;100452.38;106446;1268;98057;-65
2023/12/20 11:08:35;;;;;;;;;;;;;;;19.36;34.18;100451.52;106495;1268;111894;-65
2023/12/20 11:11:07;;;;;;;;;;;;;;;18.25;34.40;100453.11;106494;1268;108687;-64
2023/12/20 11:13:44;;;;;;;;;;;;;;;17.34;35.42;100446.04;106480;1268;107642;-64
2023/12/20 11:16:12;;;;;;;;;;;;;;;16.53;36.11;100438.79;106468;1268;97966;-64
2023/12/20 11:18:41;;;;;;;;;;;;;;;15.99;37.05;100437.15;106489;1268;97870;-65
2023/12/20 11:21:10;;;;;;;;;;;;;;;15.66;37.74;100431.70;106466;1268;111358;-64
2023/12/20 11:23:39;;;;;;;;;;;;;;;15.29;38.51;100429.43;106447;1268;108397;-66
2023/12/20 11:26:07;;;;;;;;;;;;;;;14.98;39.10;100426.05;106434;1268;108181;-66
2023/12/20 11:28:35;;;;;;;;;;;;;;;14.66;39.84;100418.92;106425;1268;97926;-64
2023/12/20 11:31:05;;;;;;;;;;;;;;;14.39;40.11;100420.09;106448;1268;98575;-64
2023/12/20 11:33:37;;;;;;;;;;;;;;;14.03;40.34;100418.93;106392;1270;111356;-64
2023/12/20 11:36:18;;;;;;;;;;;;;;;13.62;41.06;100411.29;106455;1268;107453;-64
2023/12/20 11:38:54;;;;;;;;;;;;;;;13.15;41.72;100406.48;106494;1268;108161;-64
2023/12/20 11:41:24;;;;;;;;;;;;;;;12.81;42.57;100411.27;106499;1268;97869;-63
2023/12/20 11:43:56;;;;;;;;;;;;;;;12.50;42.90;100409.61;106520;1268;97851;-64
2023/12/20 11:46:25;;;;;;;;;;;;;;;12.24;42.87;100395.52;106544;1273;112328;-64
2023/12/20 11:48:54;;;;;;;;;;;;;;;12.03;43.14;100392.81;106494;1268;107908;-64
2023/12/20 11:51:23;;;;;;;;;;;;;;;11.77;44.35;100383.46;106458;1268;107877;-64
2023/12/20 11:53:55;;;;;;;;;;;;;;;11.58;44.81;100380.11;106485;1268;97860;-63
2023/12/20 11:56:23;;;;;;;;;;;;;;;11.46;44.96;100385.09;106447;1268;97949;-63
2023/12/20 11:58:52;;;;;;;;;;;;;;;11.31;45.83;100383.65;106477;1268;111316;-64
2023/12/20 12:01:20;;;;;;;;;;;;;;;11.17;45.82;100381.03;106395;1268;106880;-64
2023/12/20 12:04:01;;;;;;;;;;;;;;;10.98;45.84;100371.95;106476;1268;108290;-66
2023/12/20 12:06:30;;;;;;;;;;;;;;;10.71;46.26;100364.84;106427;1268;98523;-66
2023/12/20 12:08:58;;;;;;;;;;;;;;;10.47;47.16;100359.38;106437;1268;97766;-62
2023/12/20 12:11:26;;;;;;;;;;;;;;;10.30;47.04;100351.67;106434;1272;111850;-64
2023/12/20 12:13:54;;;;;;;;;;;;;;;10.10;47.55;100346.16;106449;1268;107937;-63
2023/12/20 12:16:23;;;;;;;;;;;;;;;9.80;47.72;100347.70;106430;1268;108282;-63
2023/12/20 12:18:57;;;;;;;;;;;;;;;9.49;48.13;100349.79;106338;1268;97854;-64
2023/12/20 12:21:26;;;;;;;;;;;;;;;9.14;48.70;100347.66;106385;1269;98472;-62
2023/12/20 12:24:10;;;;;;;;;;;;;;;8.96;49.20;100345.52;106457;1269;112103;-65
2023/12/20 12:26:38;;;;;;;;;;;;;;;8.80;49.93;100345.15;106416;1268;107868;-64
2023/12/20 12:29:09;;;;;;;;;;;;;;;8.69;50.26;100345.95;106402;1268;108573;-63
2023/12/20 12:31:37;;;;;;;;;;;;;;;8.54;50.69;100344.49;106429;1268;98218;-66
2023/12/20 12:34:06;;;;;;;;;;;;;;;8.38;51.03;100339.25;106494;1268;97743;-66
2023/12/20 12:36:35;;;;;;;;;;;;;;;8.23;50.97;100343.36;106476;1268;111909;-64